sensor_id;sensor_type;location;lat;lon;timestamp;temperature;humidity
21698;DHT22;11010;49.548;11.926;2023-04-25T00:01:04;8.80;99.90
21698;DHT22;11010;49.548;11.926;2023-04-25T00:03:32;9.10;99.90
21698;DHT22;11010;49.548;11.926;2023-04-25T00:06:00;9.20;99.90
21698;DHT22;11010;49.548;11.926;2023-04-25T00:08:30;9.10;99.90
21698;DHT22;11010;49.548;11.926;2023-04-25T00:10:58;9.00;99.90
21698;DHT22;11010;49.548;11.926;2023-04-25T00:13:26;8.80;99.90
21698;DHT22;11010;49.548;11.926;2023-04-25T00:15:53;8.70;99.90
21698;DHT22;11010;49.548;11.926;2023-04-25T00:18:20;8.80;99.90
21698;DHT22;11010;49.548;11.926;2023-04-25T00:20:47;8.80;99.90
21698;DHT22;11010;49.548;11.926;2023-04-25T00:23:17;8.80;99.90
21698;DHT22;11010;49.548;11.926;2023-04-25T00:25:45;8.80;99.90
21698;DHT22;11010;49.548;11.926;2023-04-25T00:28:13;8.90;99.90
21698;DHT22;11010;49.548;11.926;2023-04-25T00:30:41;9.00;99.90
21698;DHT22;11010;49.548;11.926;2023-04-25T00:33:09;8.90;99.90
21698;DHT22;11010;49.548;11.926;2023-04-25T00:35:37;9.00;99.90
21698;DHT22;11010;49.548;11.926;2023-04-25T00:38:05;8.90;99.90
21698;DHT22;11010;49.548;11.926;2023-04-25T00:40:32;8.80;99.90
21698;DHT22;11010;49.548;11.926;2023-04-25T00:42:59;8.90;99.90
21698;DHT22;11010;49.548;11.926;2023-04-25T00:45:30;8.80;99.90
21698;DHT22;11010;49.548;11.926;2023-04-25T00:47:57;9.00;99.90
21698;DHT22;11010;49.548;11.926;2023-04-25T00:50:25;8.70;99.90
21698;DHT22;11010;49.548;11.926;2023-04-25T00:52:52;8.60;99.90
21698;DHT22;11010;49.548;11.926;2023-04-25T00:55:19;8.80;99.90
21698;DHT22;11010;49.548;11.926;2023-04-25T00:57:47;8.90;99.90
21698;DHT22;11010;49.548;11.926;2023-04-25T01:00:14;8.90;99.90
21698;DHT22;11010;49.548;11.926;2023-04-25T01:02:43;8.90;99.90
21698;DHT22;11010;49.548;11.926;2023-04-25T01:05:11;8.90;99.90
21698;DHT22;11010;49.548;11.926;2023-04-25T01:07:39;8.90;99.90
21698;DHT22;11010;49.548;11.926;2023-04-25T01:10:07;8.90;99.90
21698;DHT22;11010;49.548;11.926;2023-04-25T01:12:34;8.80;99.90
21698;DHT22;11010;49.548;11.926;2023-04-25T01:15:02;8.90;99.90
21698;DHT22;11010;49.548;11.926;2023-04-25T01:17:29;8.90;99.90
21698;DHT22;11010;49.548;11.926;2023-04-25T01:19:58;8.90;99.90
21698;DHT22;11010;49.548;11.926;2023-04-25T01:22:25;8.90;99.90
21698;DHT22;11010;49.548;11.926;2023-04-25T01:24:53;9.00;99.90
21698;DHT22;11010;49.548;11.926;2023-04-25T01:27:21;8.90;99.90
21698;DHT22;11010;49.548;11.926;2023-04-25T01:29:50;8.90;99.90
21698;DHT22;11010;49.548;11.926;2023-04-25T01:32:18;8.90;99.90
21698;DHT22;11010;49.548;11.926;2023-04-25T01:34:45;8.90;99.90
21698;DHT22;11010;49.548;11.926;2023-04-25T01:37:12;8.90;99.90
21698;DHT22;11010;49.548;11.926;2023-04-25T01:39:39;8.90;99.90
21698;DHT22;11010;49.548;11.926;2023-04-25T01:42:07;8.70;99.90
21698;DHT22;11010;49.548;11.926;2023-04-25T01:44:34;8.90;99.90
21698;DHT22;11010;49.548;11.926;2023-04-25T01:47:01;8.80;99.90
21698;DHT22;11010;49.548;11.926;2023-04-25T01:49:30;8.90;99.90
21698;DHT22;11010;49.548;11.926;2023-04-25T01:51:58;8.90;99.90
21698;DHT22;11010;49.548;11.926;2023-04-25T01:54:25;8.90;99.90
21698;DHT22;11010;49.548;11.926;2023-04-25T01:56:52;8.90;99.90
21698;DHT22;11010;49.548;11.926;2023-04-25T01:59:21;8.90;99.90
21698;DHT22;11010;49.548;11.926;2023-04-25T02:02:11;9.00;99.90
21698;DHT22;11010;49.548;11.926;2023-04-25T02:04:39;8.90;99.90
21698;DHT22;11010;49.548;11.926;2023-04-25T02:07:07;8.60;99.90
21698;DHT22;11010;49.548;11.926;2023-04-25T02:09:50;8.40;99.90
21698;DHT22;11010;49.548;11.926;2023-04-25T02:12:18;8.10;99.90
21698;DHT22;11010;49.548;11.926;2023-04-25T02:15:05;8.00;99.90
21698;DHT22;11010;49.548;11.926;2023-04-25T02:17:40;8.20;99.90
21698;DHT22;11010;49.548;11.926;2023-04-25T02:20:07;8.20;99.90
21698;DHT22;11010;49.548;11.926;2023-04-25T02:22:34;8.10;99.90
21698;DHT22;11010;49.548;11.926;2023-04-25T02:25:05;8.10;99.90
21698;DHT22;11010;49.548;11.926;2023-04-25T02:27:32;8.00;99.90
21698;DHT22;11010;49.548;11.926;2023-04-25T02:29:59;8.00;99.90
21698;DHT22;11010;49.548;11.926;2023-04-25T02:32:26;8.00;99.90
21698;DHT22;11010;49.548;11.926;2023-04-25T02:34:54;8.10;99.90
21698;DHT22;11010;49.548;11.926;2023-04-25T02:37:21;8.20;99.90
21698;DHT22;11010;49.548;11.926;2023-04-25T02:39:48;8.10;99.90
21698;DHT22;11010;49.548;11.926;2023-04-25T02:42:15;7.90;99.90
21698;DHT22;11010;49.548;11.926;2023-04-25T02:44:42;7.80;99.90
21698;DHT22;11010;49.548;11.926;2023-04-25T02:47:09;7.80;99.90
21698;DHT22;11010;49.548;11.926;2023-04-25T02:49:37;8.00;99.90
21698;DHT22;11010;49.548;11.926;2023-04-25T02:52:04;7.80;99.90
21698;DHT22;11010;49.548;11.926;2023-04-25T02:54:31;7.80;99.90
21698;DHT22;11010;49.548;11.926;2023-04-25T02:56:59;7.60;99.90
21698;DHT22;11010;49.548;11.926;2023-04-25T02:59:32;8.00;99.90
21698;DHT22;11010;49.548;11.926;2023-04-25T03:01:59;8.10;99.90
21698;DHT22;11010;49.548;11.926;2023-04-25T03:04:27;7.90;99.90
21698;DHT22;11010;49.548;11.926;2023-04-25T03:06:54;8.00;99.90
21698;DHT22;11010;49.548;11.926;2023-04-25T03:09:21;7.90;99.90
21698;DHT22;11010;49.548;11.926;2023-04-25T03:11:49;8.00;99.90
21698;DHT22;11010;49.548;11.926;2023-04-25T03:14:18;8.00;99.90
21698;DHT22;11010;49.548;11.926;2023-04-25T03:16:45;7.90;99.90
21698;DHT22;11010;49.548;11.926;2023-04-25T03:19:13;7.90;99.90
21698;DHT22;11010;49.548;11.926;2023-04-25T03:21:43;7.70;99.90
21698;DHT22;11010;49.548;11.926;2023-04-25T03:24:12;8.10;99.90
21698;DHT22;11010;49.548;11.926;2023-04-25T03:26:39;7.70;99.90
21698;DHT22;11010;49.548;11.926;2023-04-25T03:29:07;7.90;99.90
21698;DHT22;11010;49.548;11.926;2023-04-25T03:31:35;7.60;99.90
21698;DHT22;11010;49.548;11.926;2023-04-25T03:34:02;7.70;99.90
21698;DHT22;11010;49.548;11.926;2023-04-25T03:36:30;7.70;99.90
21698;DHT22;11010;49.548;11.926;2023-04-25T03:38:57;7.70;99.90
21698;DHT22;11010;49.548;11.926;2023-04-25T03:41:26;7.80;99.90
21698;DHT22;11010;49.548;11.926;2023-04-25T03:44:01;7.60;99.90
21698;DHT22;11010;49.548;11.926;2023-04-25T03:46:28;7.70;99.90
21698;DHT22;11010;49.548;11.926;2023-04-25T03:48:56;7.80;99.90
21698;DHT22;11010;49.548;11.926;2023-04-25T03:51:40;7.80;99.90
21698;DHT22;11010;49.548;11.926;2023-04-25T03:54:07;7.60;99.90
21698;DHT22;11010;49.548;11.926;2023-04-25T03:56:54;7.70;99.90
21698;DHT22;11010;49.548;11.926;2023-04-25T03:59:25;7.60;99.90
21698;DHT22;11010;49.548;11.926;2023-04-25T04:01:52;7.70;99.90
21698;DHT22;11010;49.548;11.926;2023-04-25T04:04:20;7.70;99.90
21698;DHT22;11010;49.548;11.926;2023-04-25T04:06:48;7.90;99.90
21698;DHT22;11010;49.548;11.926;2023-04-25T04:09:21;8.10;99.90
21698;DHT22;11010;49.548;11.926;2023-04-25T04:11:48;7.60;99.90
21698;DHT22;11010;49.548;11.926;2023-04-25T04:14:15;7.60;99.90
21698;DHT22;11010;49.548;11.926;2023-04-25T04:16:45;7.50;99.90
21698;DHT22;11010;49.548;11.926;2023-04-25T04:19:12;7.80;99.90
21698;DHT22;11010;49.548;11.926;2023-04-25T04:21:44;8.00;99.90
21698;DHT22;11010;49.548;11.926;2023-04-25T04:24:12;8.20;99.90
21698;DHT22;11010;49.548;11.926;2023-04-25T04:26:49;8.30;99.90
21698;DHT22;11010;49.548;11.926;2023-04-25T04:29:35;8.30;99.90
21698;DHT22;11010;49.548;11.926;2023-04-25T04:32:29;8.40;99.90
21698;DHT22;11010;49.548;11.926;2023-04-25T04:34:57;8.30;99.90
21698;DHT22;11010;49.548;11.926;2023-04-25T04:37:25;8.30;99.90
21698;DHT22;11010;49.548;11.926;2023-04-25T04:39:52;8.20;99.90
21698;DHT22;11010;49.548;11.926;2023-04-25T04:42:37;8.20;99.90
21698;DHT22;11010;49.548;11.926;2023-04-25T04:45:23;8.30;99.90
21698;DHT22;11010;49.548;11.926;2023-04-25T04:48:09;8.30;99.90
21698;DHT22;11010;49.548;11.926;2023-04-25T04:50:55;8.30;99.90
21698;DHT22;11010;49.548;11.926;2023-04-25T04:53:51;8.20;99.90
21698;DHT22;11010;49.548;11.926;2023-04-25T04:56:37;8.20;99.90
21698;DHT22;11010;49.548;11.926;2023-04-25T04:59:27;8.10;99.90
21698;DHT22;11010;49.548;11.926;2023-04-25T05:02:27;8.10;99.90
21698;DHT22;11010;49.548;11.926;2023-04-25T05:05:08;8.00;99.90
21698;DHT22;11010;49.548;11.926;2023-04-25T05:07:35;7.70;99.90
21698;DHT22;11010;49.548;11.926;2023-04-25T05:10:21;7.90;99.90
21698;DHT22;11010;49.548;11.926;2023-04-25T05:13:14;8.00;99.90
21698;DHT22;11010;49.548;11.926;2023-04-25T05:16:00;7.90;99.90
21698;DHT22;11010;49.548;11.926;2023-04-25T05:18:54;7.80;99.90
21698;DHT22;11010;49.548;11.926;2023-04-25T05:21:41;8.00;99.90
21698;DHT22;11010;49.548;11.926;2023-04-25T05:24:39;7.90;99.90
21698;DHT22;11010;49.548;11.926;2023-04-25T05:27:26;7.80;99.90
21698;DHT22;11010;49.548;11.926;2023-04-25T05:30:25;7.90;99.90
21698;DHT22;11010;49.548;11.926;2023-04-25T05:33:09;7.80;99.90
21698;DHT22;11010;49.548;11.926;2023-04-25T05:35:37;7.60;99.90
21698;DHT22;11010;49.548;11.926;2023-04-25T05:38:05;7.60;99.90
21698;DHT22;11010;49.548;11.926;2023-04-25T05:40:58;7.70;99.90
21698;DHT22;11010;49.548;11.926;2023-04-25T05:43:43;7.80;99.90
21698;DHT22;11010;49.548;11.926;2023-04-25T05:46:24;7.80;99.90
21698;DHT22;11010;49.548;11.926;2023-04-25T05:49:07;7.90;99.90
21698;DHT22;11010;49.548;11.926;2023-04-25T05:51:41;7.70;99.90
21698;DHT22;11010;49.548;11.926;2023-04-25T05:54:40;7.60;99.90
21698;DHT22;11010;49.548;11.926;2023-04-25T05:57:07;7.70;99.90
21698;DHT22;11010;49.548;11.926;2023-04-25T05:59:34;7.60;99.90
21698;DHT22;11010;49.548;11.926;2023-04-25T06:02:02;7.70;99.90
21698;DHT22;11010;49.548;11.926;2023-04-25T06:04:34;7.60;99.90
21698;DHT22;11010;49.548;11.926;2023-04-25T06:07:01;7.60;99.90
21698;DHT22;11010;49.548;11.926;2023-04-25T06:09:28;7.70;99.90
21698;DHT22;11010;49.548;11.926;2023-04-25T06:11:55;7.80;99.90
21698;DHT22;11010;49.548;11.926;2023-04-25T06:14:23;7.90;99.90
21698;DHT22;11010;49.548;11.926;2023-04-25T06:16:51;7.90;99.90
21698;DHT22;11010;49.548;11.926;2023-04-25T06:19:18;7.80;99.90
21698;DHT22;11010;49.548;11.926;2023-04-25T06:21:45;7.80;99.90
21698;DHT22;11010;49.548;11.926;2023-04-25T06:24:12;8.00;99.90
21698;DHT22;11010;49.548;11.926;2023-04-25T06:26:39;8.10;99.90
21698;DHT22;11010;49.548;11.926;2023-04-25T06:29:06;8.00;99.90
21698;DHT22;11010;49.548;11.926;2023-04-25T06:31:33;8.00;99.90
21698;DHT22;11010;49.548;11.926;2023-04-25T06:34:01;8.20;99.90
21698;DHT22;11010;49.548;11.926;2023-04-25T06:36:32;8.10;99.90
21698;DHT22;11010;49.548;11.926;2023-04-25T06:39:05;8.10;99.90
21698;DHT22;11010;49.548;11.926;2023-04-25T06:41:32;8.10;99.90
21698;DHT22;11010;49.548;11.926;2023-04-25T06:44:04;7.90;99.90
21698;DHT22;11010;49.548;11.926;2023-04-25T06:46:37;7.90;99.90
21698;DHT22;11010;49.548;11.926;2023-04-25T06:49:05;7.90;99.90
21698;DHT22;11010;49.548;11.926;2023-04-25T06:51:32;8.00;99.90
21698;DHT22;11010;49.548;11.926;2023-04-25T06:54:00;7.70;99.90
21698;DHT22;11010;49.548;11.926;2023-04-25T06:56:38;7.70;99.90
21698;DHT22;11010;49.548;11.926;2023-04-25T06:59:14;7.70;99.90
21698;DHT22;11010;49.548;11.926;2023-04-25T07:01:44;7.80;99.90
21698;DHT22;11010;49.548;11.926;2023-04-25T07:04:18;7.70;99.90
21698;DHT22;11010;49.548;11.926;2023-04-25T07:06:54;7.70;99.90
21698;DHT22;11010;49.548;11.926;2023-04-25T07:09:37;7.80;99.90
21698;DHT22;11010;49.548;11.926;2023-04-25T07:12:04;7.80;99.90
21698;DHT22;11010;49.548;11.926;2023-04-25T07:14:33;7.80;99.90
21698;DHT22;11010;49.548;11.926;2023-04-25T07:17:00;7.80;99.90
21698;DHT22;11010;49.548;11.926;2023-04-25T07:19:30;8.00;99.90
21698;DHT22;11010;49.548;11.926;2023-04-25T07:22:00;8.00;99.90
21698;DHT22;11010;49.548;11.926;2023-04-25T07:24:27;7.80;99.90
21698;DHT22;11010;49.548;11.926;2023-04-25T07:26:56;7.70;99.90
21698;DHT22;11010;49.548;11.926;2023-04-25T07:29:30;7.80;99.90
21698;DHT22;11010;49.548;11.926;2023-04-25T07:31:59;7.90;99.90
21698;DHT22;11010;49.548;11.926;2023-04-25T07:34:27;7.80;99.90
21698;DHT22;11010;49.548;11.926;2023-04-25T07:36:54;7.70;99.90
21698;DHT22;11010;49.548;11.926;2023-04-25T07:39:23;7.70;99.90
21698;DHT22;11010;49.548;11.926;2023-04-25T07:41:50;7.60;99.90
21698;DHT22;11010;49.548;11.926;2023-04-25T07:44:24;7.50;99.90
21698;DHT22;11010;49.548;11.926;2023-04-25T07:46:52;7.40;99.90
21698;DHT22;11010;49.548;11.926;2023-04-25T07:49:20;7.40;99.90
21698;DHT22;11010;49.548;11.926;2023-04-25T07:51:48;7.40;99.90
21698;DHT22;11010;49.548;11.926;2023-04-25T07:54:18;7.40;99.90
21698;DHT22;11010;49.548;11.926;2023-04-25T07:56:59;7.30;99.90
21698;DHT22;11010;49.548;11.926;2023-04-25T07:59:29;7.40;99.90
21698;DHT22;11010;49.548;11.926;2023-04-25T08:02:00;7.70;99.90
21698;DHT22;11010;49.548;11.926;2023-04-25T08:04:28;7.90;99.90
21698;DHT22;11010;49.548;11.926;2023-04-25T08:07:04;8.00;99.90
21698;DHT22;11010;49.548;11.926;2023-04-25T08:09:39;7.80;99.90
21698;DHT22;11010;49.548;11.926;2023-04-25T08:12:12;7.90;99.90
21698;DHT22;11010;49.548;11.926;2023-04-25T08:14:39;7.80;99.90
21698;DHT22;11010;49.548;11.926;2023-04-25T08:17:07;7.70;99.90
21698;DHT22;11010;49.548;11.926;2023-04-25T08:19:39;7.90;99.90
21698;DHT22;11010;49.548;11.926;2023-04-25T08:22:12;7.90;99.90
21698;DHT22;11010;49.548;11.926;2023-04-25T08:25:11;7.90;99.90
21698;DHT22;11010;49.548;11.926;2023-04-25T08:27:39;8.00;99.90
21698;DHT22;11010;49.548;11.926;2023-04-25T08:30:08;8.00;99.90
21698;DHT22;11010;49.548;11.926;2023-04-25T08:32:36;7.90;99.90
21698;DHT22;11010;49.548;11.926;2023-04-25T08:35:37;7.90;99.90
21698;DHT22;11010;49.548;11.926;2023-04-25T08:38:05;7.80;99.90
21698;DHT22;11010;49.548;11.926;2023-04-25T08:40:37;7.80;99.90
21698;DHT22;11010;49.548;11.926;2023-04-25T08:43:09;7.80;99.90
21698;DHT22;11010;49.548;11.926;2023-04-25T08:45:41;7.80;99.90
21698;DHT22;11010;49.548;11.926;2023-04-25T08:48:15;7.90;99.90
21698;DHT22;11010;49.548;11.926;2023-04-25T08:51:02;8.00;99.90
21698;DHT22;11010;49.548;11.926;2023-04-25T08:53:31;8.10;99.90
21698;DHT22;11010;49.548;11.926;2023-04-25T08:56:03;8.10;99.90
21698;DHT22;11010;49.548;11.926;2023-04-25T08:58:35;8.10;99.90
21698;DHT22;11010;49.548;11.926;2023-04-25T09:01:03;8.10;99.90
21698;DHT22;11010;49.548;11.926;2023-04-25T09:03:38;7.90;99.90
21698;DHT22;11010;49.548;11.926;2023-04-25T09:06:05;8.00;99.90
21698;DHT22;11010;49.548;11.926;2023-04-25T09:08:33;7.90;99.90
21698;DHT22;11010;49.548;11.926;2023-04-25T09:11:01;7.90;99.90
21698;DHT22;11010;49.548;11.926;2023-04-25T09:13:28;8.00;99.90
21698;DHT22;11010;49.548;11.926;2023-04-25T09:16:14;8.10;99.90
21698;DHT22;11010;49.548;11.926;2023-04-25T09:19:02;8.20;99.90
21698;DHT22;11010;49.548;11.926;2023-04-25T09:21:32;8.00;99.90
21698;DHT22;11010;49.548;11.926;2023-04-25T09:24:02;8.10;99.90
21698;DHT22;11010;49.548;11.926;2023-04-25T09:26:29;8.20;99.90
21698;DHT22;11010;49.548;11.926;2023-04-25T09:29:07;8.30;99.90
21698;DHT22;11010;49.548;11.926;2023-04-25T09:31:38;8.20;99.90
21698;DHT22;11010;49.548;11.926;2023-04-25T09:34:07;8.10;99.90
21698;DHT22;11010;49.548;11.926;2023-04-25T09:36:43;8.10;99.90
21698;DHT22;11010;49.548;11.926;2023-04-25T09:39:21;8.20;99.90
21698;DHT22;11010;49.548;11.926;2023-04-25T09:41:57;8.50;99.90
21698;DHT22;11010;49.548;11.926;2023-04-25T09:44:24;8.40;99.90
21698;DHT22;11010;49.548;11.926;2023-04-25T09:46:54;8.50;99.90
21698;DHT22;11010;49.548;11.926;2023-04-25T09:49:25;8.40;99.90
21698;DHT22;11010;49.548;11.926;2023-04-25T09:52:03;8.80;99.90
21698;DHT22;11010;49.548;11.926;2023-04-25T09:54:45;8.50;99.90
21698;DHT22;11010;49.548;11.926;2023-04-25T09:57:21;8.40;99.90
21698;DHT22;11010;49.548;11.926;2023-04-25T09:59:54;8.60;99.90
21698;DHT22;11010;49.548;11.926;2023-04-25T10:02:27;8.70;99.90
21698;DHT22;11010;49.548;11.926;2023-04-25T10:05:06;9.00;99.90
21698;DHT22;11010;49.548;11.926;2023-04-25T10:07:38;9.50;99.90
21698;DHT22;11010;49.548;11.926;2023-04-25T10:10:15;9.80;99.90
21698;DHT22;11010;49.548;11.926;2023-04-25T10:12:42;9.70;99.90
21698;DHT22;11010;49.548;11.926;2023-04-25T10:15:11;9.80;99.90
21698;DHT22;11010;49.548;11.926;2023-04-25T10:17:39;10.00;99.90
21698;DHT22;11010;49.548;11.926;2023-04-25T10:20:07;9.60;99.90
21698;DHT22;11010;49.548;11.926;2023-04-25T10:22:45;9.40;99.90
21698;DHT22;11010;49.548;11.926;2023-04-25T10:25:14;9.30;99.90
21698;DHT22;11010;49.548;11.926;2023-04-25T10:27:42;9.10;99.90
21698;DHT22;11010;49.548;11.926;2023-04-25T10:30:13;9.10;99.90
21698;DHT22;11010;49.548;11.926;2023-04-25T10:32:44;9.10;99.90
21698;DHT22;11010;49.548;11.926;2023-04-25T10:35:17;9.40;99.90
21698;DHT22;11010;49.548;11.926;2023-04-25T10:40:31;9.40;99.90
21698;DHT22;11010;49.548;11.926;2023-04-25T10:43:33;9.40;99.90
21698;DHT22;11010;49.548;11.926;2023-04-25T10:46:00;9.20;99.90
21698;DHT22;11010;49.548;11.926;2023-04-25T10:48:29;9.30;99.90
21698;DHT22;11010;49.548;11.926;2023-04-25T10:51:09;9.40;99.90
21698;DHT22;11010;49.548;11.926;2023-04-25T10:53:37;9.40;99.90
21698;DHT22;11010;49.548;11.926;2023-04-25T10:56:17;9.60;99.90
21698;DHT22;11010;49.548;11.926;2023-04-25T10:58:45;10.20;99.90
21698;DHT22;11010;49.548;11.926;2023-04-25T11:01:20;11.00;99.90
21698;DHT22;11010;49.548;11.926;2023-04-25T11:03:47;11.50;99.90
21698;DHT22;11010;49.548;11.926;2023-04-25T11:06:31;10.80;99.90
21698;DHT22;11010;49.548;11.926;2023-04-25T11:09:10;10.70;99.90
21698;DHT22;11010;49.548;11.926;2023-04-25T11:11:40;11.30;99.90
21698;DHT22;11010;49.548;11.926;2023-04-25T11:14:07;11.00;99.90
21698;DHT22;11010;49.548;11.926;2023-04-25T11:16:34;11.20;99.90
21698;DHT22;11010;49.548;11.926;2023-04-25T11:19:03;11.30;99.90
21698;DHT22;11010;49.548;11.926;2023-04-25T11:21:31;11.60;99.90
21698;DHT22;11010;49.548;11.926;2023-04-25T11:23:59;11.40;99.90
21698;DHT22;11010;49.548;11.926;2023-04-25T11:26:27;11.70;99.90
21698;DHT22;11010;49.548;11.926;2023-04-25T11:28:58;12.00;99.90
21698;DHT22;11010;49.548;11.926;2023-04-25T11:31:27;12.00;99.90
21698;DHT22;11010;49.548;11.926;2023-04-25T11:33:56;12.50;99.90
21698;DHT22;11010;49.548;11.926;2023-04-25T11:36:24;12.20;99.90
21698;DHT22;11010;49.548;11.926;2023-04-25T11:38:53;11.50;99.90
21698;DHT22;11010;49.548;11.926;2023-04-25T11:41:20;11.50;99.90
21698;DHT22;11010;49.548;11.926;2023-04-25T11:43:49;11.60;99.90
21698;DHT22;11010;49.548;11.926;2023-04-25T11:46:18;11.10;99.90
21698;DHT22;11010;49.548;11.926;2023-04-25T11:48:47;11.00;99.90
21698;DHT22;11010;49.548;11.926;2023-04-25T11:51:15;10.90;99.90
21698;DHT22;11010;49.548;11.926;2023-04-25T11:53:44;10.70;99.90
21698;DHT22;11010;49.548;11.926;2023-04-25T11:56:12;10.70;99.90
21698;DHT22;11010;49.548;11.926;2023-04-25T11:59:02;10.60;99.90
21698;DHT22;11010;49.548;11.926;2023-04-25T12:01:31;10.40;99.90
21698;DHT22;11010;49.548;11.926;2023-04-25T12:06:43;10.30;99.90
21698;DHT22;11010;49.548;11.926;2023-04-25T12:09:11;10.40;99.90
21698;DHT22;11010;49.548;11.926;2023-04-25T12:11:47;10.60;99.90
21698;DHT22;11010;49.548;11.926;2023-04-25T12:14:28;10.70;99.90
21698;DHT22;11010;49.548;11.926;2023-04-25T12:16:57;10.90;99.90
21698;DHT22;11010;49.548;11.926;2023-04-25T12:19:25;11.20;99.90
21698;DHT22;11010;49.548;11.926;2023-04-25T12:21:52;11.10;99.90
21698;DHT22;11010;49.548;11.926;2023-04-25T12:24:26;11.00;99.90
21698;DHT22;11010;49.548;11.926;2023-04-25T12:27:02;11.60;99.90
21698;DHT22;11010;49.548;11.926;2023-04-25T12:29:32;12.30;99.90
21698;DHT22;11010;49.548;11.926;2023-04-25T12:32:14;12.10;99.90
21698;DHT22;11010;49.548;11.926;2023-04-25T12:34:42;12.30;99.90
21698;DHT22;11010;49.548;11.926;2023-04-25T12:37:09;12.30;99.90
21698;DHT22;11010;49.548;11.926;2023-04-25T12:39:37;12.60;99.90
21698;DHT22;11010;49.548;11.926;2023-04-25T12:42:04;12.10;99.90
21698;DHT22;11010;49.548;11.926;2023-04-25T12:44:35;11.90;99.90
21698;DHT22;11010;49.548;11.926;2023-04-25T12:47:03;11.80;99.90
21698;DHT22;11010;49.548;11.926;2023-04-25T12:49:31;12.40;99.90
21698;DHT22;11010;49.548;11.926;2023-04-25T12:51:58;12.30;99.90
21698;DHT22;11010;49.548;11.926;2023-04-25T12:54:26;12.30;99.90
21698;DHT22;11010;49.548;11.926;2023-04-25T12:56:53;12.10;99.90
21698;DHT22;11010;49.548;11.926;2023-04-25T12:59:21;12.10;99.90
21698;DHT22;11010;49.548;11.926;2023-04-25T13:01:49;12.70;99.90
21698;DHT22;11010;49.548;11.926;2023-04-25T13:04:16;13.00;99.90
21698;DHT22;11010;49.548;11.926;2023-04-25T13:06:44;12.30;99.90
21698;DHT22;11010;49.548;11.926;2023-04-25T13:09:12;12.80;99.90
21698;DHT22;11010;49.548;11.926;2023-04-25T13:11:39;12.90;99.90
21698;DHT22;11010;49.548;11.926;2023-04-25T13:14:08;12.60;99.90
21698;DHT22;11010;49.548;11.926;2023-04-25T13:16:35;12.10;99.90
21698;DHT22;11010;49.548;11.926;2023-04-25T13:19:02;12.20;99.90
21698;DHT22;11010;49.548;11.926;2023-04-25T13:21:30;11.70;99.90
21698;DHT22;11010;49.548;11.926;2023-04-25T13:23:59;11.90;99.90
21698;DHT22;11010;49.548;11.926;2023-04-25T13:26:26;12.20;99.90
21698;DHT22;11010;49.548;11.926;2023-04-25T13:28:53;12.40;99.90
21698;DHT22;11010;49.548;11.926;2023-04-25T13:31:20;12.60;99.90
21698;DHT22;11010;49.548;11.926;2023-04-25T13:33:48;12.10;99.90
21698;DHT22;11010;49.548;11.926;2023-04-25T13:36:16;12.10;99.90
21698;DHT22;11010;49.548;11.926;2023-04-25T13:38:43;11.70;99.90
21698;DHT22;11010;49.548;11.926;2023-04-25T13:41:12;11.50;99.90
21698;DHT22;11010;49.548;11.926;2023-04-25T13:43:48;11.50;99.90
21698;DHT22;11010;49.548;11.926;2023-04-25T13:46:15;11.60;99.90
21698;DHT22;11010;49.548;11.926;2023-04-25T13:49:01;11.50;99.90
21698;DHT22;11010;49.548;11.926;2023-04-25T13:51:39;11.30;99.90
21698;DHT22;11010;49.548;11.926;2023-04-25T13:54:06;11.50;99.90
21698;DHT22;11010;49.548;11.926;2023-04-25T13:56:34;11.60;99.90
21698;DHT22;11010;49.548;11.926;2023-04-25T13:59:01;11.70;99.90
21698;DHT22;11010;49.548;11.926;2023-04-25T14:01:29;11.80;99.90
21698;DHT22;11010;49.548;11.926;2023-04-25T14:03:58;11.50;99.90
21698;DHT22;11010;49.548;11.926;2023-04-25T14:06:25;11.50;99.90
21698;DHT22;11010;49.548;11.926;2023-04-25T14:08:53;11.20;99.90
21698;DHT22;11010;49.548;11.926;2023-04-25T14:11:20;11.10;99.90
21698;DHT22;11010;49.548;11.926;2023-04-25T14:13:48;11.20;99.90
21698;DHT22;11010;49.548;11.926;2023-04-25T14:16:16;11.30;99.90
21698;DHT22;11010;49.548;11.926;2023-04-25T14:18:44;11.10;99.90
21698;DHT22;11010;49.548;11.926;2023-04-25T14:21:11;11.00;99.90
21698;DHT22;11010;49.548;11.926;2023-04-25T14:23:38;10.90;99.90
21698;DHT22;11010;49.548;11.926;2023-04-25T14:26:05;10.90;99.90
21698;DHT22;11010;49.548;11.926;2023-04-25T14:28:32;11.00;99.90
21698;DHT22;11010;49.548;11.926;2023-04-25T14:30:59;11.20;99.90
21698;DHT22;11010;49.548;11.926;2023-04-25T14:33:27;11.20;99.90
21698;DHT22;11010;49.548;11.926;2023-04-25T14:35:55;11.20;99.90
21698;DHT22;11010;49.548;11.926;2023-04-25T14:38:22;11.20;99.90
21698;DHT22;11010;49.548;11.926;2023-04-25T14:40:51;11.40;99.90
21698;DHT22;11010;49.548;11.926;2023-04-25T14:43:21;11.10;99.90
21698;DHT22;11010;49.548;11.926;2023-04-25T14:45:48;10.80;99.90
21698;DHT22;11010;49.548;11.926;2023-04-25T14:48:16;10.80;99.90
21698;DHT22;11010;49.548;11.926;2023-04-25T14:50:45;10.90;99.90
21698;DHT22;11010;49.548;11.926;2023-04-25T14:53:12;10.80;99.90
21698;DHT22;11010;49.548;11.926;2023-04-25T14:55:40;10.50;99.90
21698;DHT22;11010;49.548;11.926;2023-04-25T14:58:09;10.60;99.90
21698;DHT22;11010;49.548;11.926;2023-04-25T15:00:36;10.50;99.90
21698;DHT22;11010;49.548;11.926;2023-04-25T15:03:04;10.30;99.90
21698;DHT22;11010;49.548;11.926;2023-04-25T15:05:31;10.40;99.90
21698;DHT22;11010;49.548;11.926;2023-04-25T15:07:58;10.40;99.90
21698;DHT22;11010;49.548;11.926;2023-04-25T15:10:26;10.30;99.90
21698;DHT22;11010;49.548;11.926;2023-04-25T15:12:53;10.40;99.90
21698;DHT22;11010;49.548;11.926;2023-04-25T15:15:20;10.50;99.90
21698;DHT22;11010;49.548;11.926;2023-04-25T15:17:53;10.50;99.90
21698;DHT22;11010;49.548;11.926;2023-04-25T15:20:25;10.40;99.90
21698;DHT22;11010;49.548;11.926;2023-04-25T15:22:53;10.50;99.90
21698;DHT22;11010;49.548;11.926;2023-04-25T15:25:21;10.40;99.90
21698;DHT22;11010;49.548;11.926;2023-04-25T15:27:48;10.20;99.90
21698;DHT22;11010;49.548;11.926;2023-04-25T15:30:18;10.10;99.90
21698;DHT22;11010;49.548;11.926;2023-04-25T15:32:47;10.00;99.90
21698;DHT22;11010;49.548;11.926;2023-04-25T15:35:14;10.00;99.90
21698;DHT22;11010;49.548;11.926;2023-04-25T15:37:42;9.90;99.90
21698;DHT22;11010;49.548;11.926;2023-04-25T15:40:15;10.10;99.90
21698;DHT22;11010;49.548;11.926;2023-04-25T15:42:46;10.00;99.90
21698;DHT22;11010;49.548;11.926;2023-04-25T15:45:14;10.00;99.90
21698;DHT22;11010;49.548;11.926;2023-04-25T15:47:44;10.00;99.90
21698;DHT22;11010;49.548;11.926;2023-04-25T15:50:11;10.00;99.90
21698;DHT22;11010;49.548;11.926;2023-04-25T15:52:39;10.00;99.90
21698;DHT22;11010;49.548;11.926;2023-04-25T15:55:07;10.00;99.90